WMT9GW EGGW-LSGG
Flight info
| Callsign | WMT9GW |
|---|---|
| Flight time | N/A |
| Altitude | 35000 |
| Route | RODNI1C RODNI N27 ICTAM Q63 CPT DCT MID UL612 OGULO DCT OKASI DCT OKEKO DCT MOU DCT MADIV DCT MOKIP DCT TUFTA DCT KOGAS DCT MEDAM DCT NITAM DCT MOGBO DCT ELB/N0449F360 DCT ELKAP ELKAP3A |
| Aircraft | A321/M-SDE3FGHIRWY/LB1 |
Departure
| Time | N/A |
|---|---|
| Airport | London Luton Airport (EGGW) |
Arrival
| Time | 2026-05-06 23:46 |
|---|---|
| Airport | Geneva International Airport (LSGG) |
| Time | Latitude | Longitude | Altitude | Speed | Heading |
|---|---|---|---|---|---|
| 2026-05-06 23:36 | 46.42325 | 5.96285 | 9239 ft | 348 kts | 148° |
| 2026-05-06 23:37 | 46.40354 | 5.98257 | 8835 ft | 340 kts | 147° |
| 2026-05-06 23:37 | 46.38475 | 6.00278 | 8446 ft | 335 kts | 138° |
| 2026-05-06 23:37 | 46.37165 | 6.03030 | 8062 ft | 333 kts | 114° |
| 2026-05-06 23:37 | 46.36762 | 6.06299 | 7674 ft | 332 kts | 88° |
| 2026-05-06 23:38 | 46.37319 | 6.09469 | 7276 ft | 318 kts | 63° |
| 2026-05-06 23:38 | 46.38601 | 6.11931 | 6906 ft | 298 kts | 44° |
| 2026-05-06 23:38 | 46.40036 | 6.14020 | 6541 ft | 290 kts | 45° |
| 2026-05-06 23:38 | 46.41455 | 6.16099 | 6159 ft | 291 kts | 45° |
| 2026-05-06 23:39 | 46.42875 | 6.18183 | 5770 ft | 291 kts | 45° |
| 2026-05-06 23:39 | 46.44074 | 6.20510 | 5381 ft | 285 kts | 66° |
| 2026-05-06 23:39 | 46.44579 | 6.23177 | 4997 ft | 267 kts | 89° |
| 2026-05-06 23:39 | 46.44398 | 6.25755 | 4616 ft | 250 kts | 112° |
| 2026-05-06 23:40 | 46.43669 | 6.27937 | 4258 ft | 232 kts | 132° |
| 2026-05-06 23:40 | 46.42562 | 6.29577 | 4162 ft | 221 kts | 149° |
| 2026-05-06 23:40 | 46.41252 | 6.30608 | 4005 ft | 211 kts | 163° |
| 2026-05-06 23:40 | 46.39830 | 6.31031 | 3875 ft | 207 kts | 181° |
| 2026-05-06 23:41 | 46.38409 | 6.30850 | 3991 ft | 205 kts | 195° |
| 2026-05-06 23:41 | 46.37102 | 6.30119 | 4002 ft | 204 kts | 211° |
| 2026-05-06 23:41 | 46.35983 | 6.28848 | 4018 ft | 197 kts | 225° |
| 2026-05-06 23:41 | 46.35087 | 6.27532 | 4012 ft | 175 kts | 226° |
| 2026-05-06 23:42 | 46.34279 | 6.26330 | 3946 ft | 161 kts | 226° |
| 2026-05-06 23:42 | 46.33514 | 6.25198 | 3810 ft | 156 kts | 226° |
| 2026-05-06 23:42 | 46.32765 | 6.24092 | 3610 ft | 153 kts | 226° |
| 2026-05-06 23:42 | 46.32040 | 6.23021 | 3432 ft | 145 kts | 226° |
| 2026-05-06 23:43 | 46.31347 | 6.21998 | 3229 ft | 141 kts | 225° |
| 2026-05-06 23:43 | 46.30664 | 6.20991 | 3029 ft | 141 kts | 226° |
| 2026-05-06 23:43 | 46.29980 | 6.19983 | 2833 ft | 140 kts | 226° |
| 2026-05-06 23:43 | 46.29296 | 6.18974 | 2629 ft | 140 kts | 225° |
| 2026-05-06 23:44 | 46.28611 | 6.17963 | 2438 ft | 141 kts | 225° |
| 2026-05-06 23:44 | 46.27923 | 6.16960 | 2261 ft | 141 kts | 224° |
| 2026-05-06 23:44 | 46.27230 | 6.15951 | 2065 ft | 141 kts | 225° |
| 2026-05-06 23:44 | 46.26547 | 6.14942 | 1865 ft | 138 kts | 224° |
| 2026-05-06 23:45 | 46.25873 | 6.13939 | 1669 ft | 138 kts | 225° |
| 2026-05-06 23:45 | 46.25202 | 6.12951 | 1471 ft | 138 kts | 224° |
| 2026-05-06 23:45 | 46.24529 | 6.11964 | 1372 ft | 131 kts | 225° |
| 2026-05-06 23:45 | 46.23989 | 6.11167 | 1377 ft | 87 kts | 225° |
| 2026-05-06 23:46 | 46.23674 | 6.10708 | 1382 ft | 50 kts | 225° |
| 2026-05-06 23:46 | 46.23443 | 6.10369 | 1403 ft | 44 kts | 225° |
| 2026-05-06 23:46 | 46.23249 | 6.10143 | 1405 ft | 28 kts | 202° |
| 2026-05-06 23:46 | 46.23129 | 6.10095 | 1402 ft | 13 kts | 180° |
| 2026-05-06 23:47 | 46.23091 | 6.10173 | 1394 ft | 11 kts | 47° |
| 2026-05-06 23:47 | 46.23147 | 6.10263 | 1402 ft | 13 kts | 50° |
| 2026-05-06 23:47 | 46.23213 | 6.10370 | 1398 ft | 15 kts | 45° |
| 2026-05-06 23:47 | 46.23292 | 6.10486 | 1400 ft | 17 kts | 46° |
| 2026-05-06 23:48 | 46.23380 | 6.10617 | 1398 ft | 19 kts | 46° |
| 2026-05-06 23:48 | 46.23480 | 6.10755 | 1399 ft | 21 kts | 43° |
| 2026-05-06 23:48 | 46.23546 | 6.10852 | 1388 ft | 11 kts | 46° |
| 2026-05-06 23:48 | 46.23551 | 6.10924 | 1400 ft | 7 kts | 130° |
| 2026-05-06 23:49 | 46.23525 | 6.10959 | 1401 ft | 3 kts | 135° |
| 2026-05-06 23:49 | 46.23523 | 6.10962 | 1402 ft | 0 kts | 135° |
| 2026-05-06 23:50 | 46.23524 | 6.10961 | 1401 ft | 0 kts | 136° |